sensor_id;sensor_type;location;lat;lon;timestamp;pressure;altitude;pressure_sealevel;temperature;humidity
33949;BME280;20229;49.856;19.030;2023-05-10T00:01:32;101807.65;;;6.56;71.80
33949;BME280;20229;49.856;19.030;2023-05-10T00:06:46;101808.34;;;6.66;69.46
33949;BME280;20229;49.856;19.030;2023-05-10T00:11:59;101803.56;;;6.77;69.11
33949;BME280;20229;49.856;19.030;2023-05-10T00:17:13;101802.48;;;6.84;68.14
33949;BME280;20229;49.856;19.030;2023-05-10T00:22:27;101795.97;;;6.93;67.39
33949;BME280;20229;49.856;19.030;2023-05-10T00:27:41;101795.79;;;6.99;67.29
33949;BME280;20229;49.856;19.030;2023-05-10T00:32:54;101793.01;;;7.02;67.02
33949;BME280;20229;49.856;19.030;2023-05-10T00:38:08;101794.65;;;7.09;66.60
33949;BME280;20229;49.856;19.030;2023-05-10T00:43:22;101792.65;;;7.17;66.71
33949;BME280;20229;49.856;19.030;2023-05-10T00:48:37;101778.01;;;7.23;65.49
33949;BME280;20229;49.856;19.030;2023-05-10T00:53:51;101770.66;;;7.28;65.80
33949;BME280;20229;49.856;19.030;2023-05-10T00:59:06;101778.67;;;7.33;65.54
33949;BME280;20229;49.856;19.030;2023-05-10T01:04:22;101774.12;;;7.33;65.10
33949;BME280;20229;49.856;19.030;2023-05-10T01:09:39;101769.58;;;7.34;65.55
33949;BME280;20229;49.856;19.030;2023-05-10T01:14:53;101769.43;;;7.40;65.03
33949;BME280;20229;49.856;19.030;2023-05-10T01:20:09;101768.48;;;7.41;65.37
33949;BME280;20229;49.856;19.030;2023-05-10T01:36:58;101761.30;;;7.38;64.94
33949;BME280;20229;49.856;19.030;2023-05-10T01:42:21;101753.05;;;7.43;65.70
33949;BME280;20229;49.856;19.030;2023-05-10T01:47:46;101747.62;;;7.43;65.62
33949;BME280;20229;49.856;19.030;2023-05-10T01:53:08;101744.77;;;7.48;65.40
33949;BME280;20229;49.856;19.030;2023-05-10T01:58:30;101748.37;;;7.48;65.28
33949;BME280;20229;49.856;19.030;2023-05-10T02:03:45;101739.33;;;7.48;65.58
33949;BME280;20229;49.856;19.030;2023-05-10T02:09:01;101735.78;;;7.46;65.47
33949;BME280;20229;49.856;19.030;2023-05-10T02:14:18;101730.45;;;7.41;65.52
33949;BME280;20229;49.856;19.030;2023-05-10T02:19:36;101725.08;;;7.39;65.63
33949;BME280;20229;49.856;19.030;2023-05-10T02:24:51;101725.02;;;7.41;65.72
33949;BME280;20229;49.856;19.030;2023-05-10T02:30:07;101724.19;;;7.39;65.96
33949;BME280;20229;49.856;19.030;2023-05-10T02:35:22;101724.11;;;7.42;65.47
33949;BME280;20229;49.856;19.030;2023-05-10T02:40:38;101723.25;;;7.40;66.31
33949;BME280;20229;49.856;19.030;2023-05-10T02:45:54;101721.50;;;7.37;66.27
33949;BME280;20229;49.856;19.030;2023-05-10T02:51:11;101729.77;;;7.33;65.88
33949;BME280;20229;49.856;19.030;2023-05-10T02:56:33;101722.47;;;7.35;65.65
33949;BME280;20229;49.856;19.030;2023-05-10T03:01:48;101723.46;;;7.32;65.86
33949;BME280;20229;49.856;19.030;2023-05-10T03:07:02;101722.64;;;7.29;65.53
33949;BME280;20229;49.856;19.030;2023-05-10T03:18:18;101729.09;;;7.25;66.12
33949;BME280;20229;49.856;19.030;2023-05-10T03:23:43;101728.08;;;7.29;65.70
33949;BME280;20229;49.856;19.030;2023-05-10T03:28:58;101728.92;;;7.31;65.50
33949;BME280;20229;49.856;19.030;2023-05-10T03:34:13;101720.52;;;7.40;65.70
33949;BME280;20229;49.856;19.030;2023-05-10T03:39:26;101722.23;;;7.44;65.95
33949;BME280;20229;49.856;19.030;2023-05-10T03:44:40;101729.27;;;7.51;65.41
33949;BME280;20229;49.856;19.030;2023-05-10T03:49:55;101711.87;;;7.58;65.45
33949;BME280;20229;49.856;19.030;2023-05-10T03:55:09;101714.36;;;7.66;65.54
33949;BME280;20229;49.856;19.030;2023-05-10T04:00:22;101716.11;;;7.69;65.13
33949;BME280;20229;49.856;19.030;2023-05-10T04:05:36;101709.62;;;7.74;65.28
33949;BME280;20229;49.856;19.030;2023-05-10T04:10:50;101711.34;;;7.77;64.84
33949;BME280;20229;49.856;19.030;2023-05-10T04:16:06;101715.58;;;7.87;64.39
33949;BME280;20229;49.856;19.030;2023-05-10T04:21:19;101720.67;;;7.99;63.95
33949;BME280;20229;49.856;19.030;2023-05-10T04:26:33;101719.22;;;8.17;63.95
33949;BME280;20229;49.856;19.030;2023-05-10T04:31:47;101722.42;;;8.31;63.31
33949;BME280;20229;49.856;19.030;2023-05-10T04:37:02;101723.85;;;8.45;63.19
33949;BME280;20229;49.856;19.030;2023-05-10T04:42:21;101723.38;;;8.58;63.15
33949;BME280;20229;49.856;19.030;2023-05-10T04:47:34;101713.80;;;8.75;62.46
33949;BME280;20229;49.856;19.030;2023-05-10T04:52:50;101716.06;;;8.89;62.79
33949;BME280;20229;49.856;19.030;2023-05-10T04:58:04;101720.06;;;9.05;61.71
33949;BME280;20229;49.856;19.030;2023-05-10T05:03:18;101711.29;;;9.22;61.79
33949;BME280;20229;49.856;19.030;2023-05-10T05:08:31;101710.52;;;9.43;61.62
33949;BME280;20229;49.856;19.030;2023-05-10T05:13:45;101710.56;;;9.68;61.69
33949;BME280;20229;49.856;19.030;2023-05-10T05:19:00;101708.31;;;10.03;61.12
33949;BME280;20229;49.856;19.030;2023-05-10T05:24:14;101711.20;;;10.47;60.60
33949;BME280;20229;49.856;19.030;2023-05-10T05:29:28;101699.18;;;13.47;56.09
33949;BME280;20229;49.856;19.030;2023-05-10T05:34:44;101684.28;;;18.69;44.42
33949;BME280;20229;49.856;19.030;2023-05-10T05:39:58;101681.10;;;21.80;37.35
33949;BME280;20229;49.856;19.030;2023-05-10T05:45:14;101682.24;;;24.16;32.66
33949;BME280;20229;49.856;19.030;2023-05-10T05:50:28;101674.13;;;26.39;30.59
33949;BME280;20229;49.856;19.030;2023-05-10T05:55:51;101679.62;;;28.40;26.32
33949;BME280;20229;49.856;19.030;2023-05-10T06:01:07;101674.43;;;30.52;23.39
33949;BME280;20229;49.856;19.030;2023-05-10T06:06:22;101665.75;;;32.48;22.47
33949;BME280;20229;49.856;19.030;2023-05-10T06:11:36;101670.55;;;33.50;22.37
33949;BME280;20229;49.856;19.030;2023-05-10T06:16:50;101670.74;;;35.26;20.83
33949;BME280;20229;49.856;19.030;2023-05-10T06:22:04;101673.02;;;36.12;16.94
33949;BME280;20229;49.856;19.030;2023-05-10T06:27:18;101679.05;;;37.21;18.34
33949;BME280;20229;49.856;19.030;2023-05-10T06:32:32;101669.66;;;38.16;17.25
33949;BME280;20229;49.856;19.030;2023-05-10T06:37:46;101671.98;;;39.42;16.44
33949;BME280;20229;49.856;19.030;2023-05-10T06:43:01;101660.09;;;40.63;15.23
33949;BME280;20229;49.856;19.030;2023-05-10T06:48:15;101659.55;;;41.54;15.81
33949;BME280;20229;49.856;19.030;2023-05-10T06:53:28;101653.75;;;42.08;14.08
33949;BME280;20229;49.856;19.030;2023-05-10T06:58:43;101647.34;;;42.28;13.17
33949;BME280;20229;49.856;19.030;2023-05-10T07:03:57;101637.06;;;42.90;12.11
33949;BME280;20229;49.856;19.030;2023-05-10T07:09:10;101641.23;;;43.19;12.67
33949;BME280;20229;49.856;19.030;2023-05-10T07:14:25;101636.73;;;43.85;12.07
33949;BME280;20229;49.856;19.030;2023-05-10T07:19:40;101624.68;;;44.29;12.97
33949;BME280;20229;49.856;19.030;2023-05-10T07:24:56;101627.98;;;44.82;12.11
33949;BME280;20229;49.856;19.030;2023-05-10T07:30:11;101623.41;;;45.30;11.04
33949;BME280;20229;49.856;19.030;2023-05-10T07:35:25;101615.22;;;45.53;11.49
33949;BME280;20229;49.856;19.030;2023-05-10T07:40:39;101617.58;;;45.85;10.77
33949;BME280;20229;49.856;19.030;2023-05-10T07:45:54;101616.14;;;46.12;10.39
33949;BME280;20229;49.856;19.030;2023-05-10T07:51:08;101598.40;;;46.29;10.55
33949;BME280;20229;49.856;19.030;2023-05-10T07:56:25;101592.79;;;46.66;10.61
33949;BME280;20229;49.856;19.030;2023-05-10T08:01:43;101602.48;;;46.52;10.32
33949;BME280;20229;49.856;19.030;2023-05-10T08:06:56;101603.58;;;46.56;10.14
33949;BME280;20229;49.856;19.030;2023-05-10T08:12:11;101592.87;;;46.56;10.26
33949;BME280;20229;49.856;19.030;2023-05-10T08:17:25;101597.23;;;46.54;10.13
33949;BME280;20229;49.856;19.030;2023-05-10T08:22:39;101589.43;;;46.78;10.75
33949;BME280;20229;49.856;19.030;2023-05-10T08:27:53;101586.73;;;45.81;11.00
33949;BME280;20229;49.856;19.030;2023-05-10T08:33:07;101577.30;;;41.87;11.74
33949;BME280;20229;49.856;19.030;2023-05-10T08:38:23;101573.79;;;39.31;13.80
33949;BME280;20229;49.856;19.030;2023-05-10T08:43:39;101580.75;;;37.61;15.87
33949;BME280;20229;49.856;19.030;2023-05-10T08:49:02;101579.17;;;35.94;15.65
33949;BME280;20229;49.856;19.030;2023-05-10T08:54:17;101577.02;;;34.94;17.19
33949;BME280;20229;49.856;19.030;2023-05-10T08:59:32;101570.38;;;34.11;17.78
33949;BME280;20229;49.856;19.030;2023-05-10T09:04:46;101568.81;;;33.15;17.56
33949;BME280;20229;49.856;19.030;2023-05-10T09:10:04;101569.80;;;32.05;19.03
33949;BME280;20229;49.856;19.030;2023-05-10T09:15:19;101562.77;;;31.02;19.05
33949;BME280;20229;49.856;19.030;2023-05-10T09:20:33;101560.58;;;30.31;19.91
33949;BME280;20229;49.856;19.030;2023-05-10T09:25:47;101554.14;;;29.93;20.33
33949;BME280;20229;49.856;19.030;2023-05-10T09:39:37;101552.50;;;26.76;23.63
33949;BME280;20229;49.856;19.030;2023-05-10T09:44:51;101548.75;;;26.08;24.67
33949;BME280;20229;49.856;19.030;2023-05-10T09:50:06;101546.95;;;25.99;27.72
33949;BME280;20229;49.856;19.030;2023-05-10T09:55:22;101546.27;;;25.53;27.70
33949;BME280;20229;49.856;19.030;2023-05-10T10:00:38;101543.05;;;25.04;27.01
33949;BME280;20229;49.856;19.030;2023-05-10T10:05:52;101539.88;;;24.81;28.98
33949;BME280;20229;49.856;19.030;2023-05-10T10:11:09;101531.83;;;25.14;27.70
33949;BME280;20229;49.856;19.030;2023-05-10T10:16:23;101518.59;;;25.42;28.41
33949;BME280;20229;49.856;19.030;2023-05-10T10:21:38;101527.90;;;24.89;26.96
33949;BME280;20229;49.856;19.030;2023-05-10T10:26:56;101534.64;;;24.23;27.22
33949;BME280;20229;49.856;19.030;2023-05-10T10:37:45;101514.36;;;23.56;27.97
33949;BME280;20229;49.856;19.030;2023-05-10T10:48:25;101512.49;;;23.47;28.07
33949;BME280;20229;49.856;19.030;2023-05-10T10:53:40;101510.21;;;23.13;29.14
33949;BME280;20229;49.856;19.030;2023-05-10T10:58:59;101512.24;;;22.91;29.34
33949;BME280;20229;49.856;19.030;2023-05-10T11:04:17;101507.30;;;23.05;29.64
33949;BME280;20229;49.856;19.030;2023-05-10T11:09:40;101503.46;;;23.25;28.28
33949;BME280;20229;49.856;19.030;2023-05-10T11:14:57;101502.71;;;23.33;28.36
33949;BME280;20229;49.856;19.030;2023-05-10T11:20:14;101503.39;;;23.45;29.00
33949;BME280;20229;49.856;19.030;2023-05-10T11:25:28;101508.37;;;23.51;28.37
33949;BME280;20229;49.856;19.030;2023-05-10T11:30:44;101506.29;;;23.53;27.67
33949;BME280;20229;49.856;19.030;2023-05-10T11:35:59;101509.86;;;23.35;28.10
33949;BME280;20229;49.856;19.030;2023-05-10T11:41:16;101505.80;;;23.20;28.82
33949;BME280;20229;49.856;19.030;2023-05-10T11:46:30;101503.18;;;23.09;28.52
33949;BME280;20229;49.856;19.030;2023-05-10T11:51:44;101498.48;;;23.19;28.32
33949;BME280;20229;49.856;19.030;2023-05-10T11:57:00;101494.05;;;23.36;29.66
33949;BME280;20229;49.856;19.030;2023-05-10T12:02:14;101500.42;;;23.56;29.33
33949;BME280;20229;49.856;19.030;2023-05-10T12:07:28;101499.27;;;23.49;29.58
33949;BME280;20229;49.856;19.030;2023-05-10T12:12:44;101501.50;;;23.35;28.88
33949;BME280;20229;49.856;19.030;2023-05-10T12:18:00;101504.05;;;23.19;28.92
33949;BME280;20229;49.856;19.030;2023-05-10T12:23:15;101490.88;;;23.02;29.41
33949;BME280;20229;49.856;19.030;2023-05-10T12:28:30;101498.49;;;22.90;29.82
33949;BME280;20229;49.856;19.030;2023-05-10T12:33:45;101499.36;;;22.90;29.14
33949;BME280;20229;49.856;19.030;2023-05-10T12:39:03;101500.38;;;22.89;30.19
33949;BME280;20229;49.856;19.030;2023-05-10T12:44:18;101495.13;;;23.06;31.72
33949;BME280;20229;49.856;19.030;2023-05-10T12:49:32;101485.63;;;23.46;29.62
33949;BME280;20229;49.856;19.030;2023-05-10T12:54:47;101482.05;;;23.16;29.81
33949;BME280;20229;49.856;19.030;2023-05-10T13:00:01;101483.11;;;22.96;28.85
33949;BME280;20229;49.856;19.030;2023-05-10T13:05:26;101480.34;;;22.96;29.40
33949;BME280;20229;49.856;19.030;2023-05-10T13:10:40;101482.05;;;23.26;28.94
33949;BME280;20229;49.856;19.030;2023-05-10T13:15:54;101477.27;;;23.46;28.18
33949;BME280;20229;49.856;19.030;2023-05-10T13:21:08;101474.08;;;23.41;29.97
33949;BME280;20229;49.856;19.030;2023-05-10T13:26:22;101460.36;;;23.20;31.03
33949;BME280;20229;49.856;19.030;2023-05-10T13:31:37;101462.44;;;23.08;29.71
33949;BME280;20229;49.856;19.030;2023-05-10T13:36:51;101454.81;;;22.90;29.70
33949;BME280;20229;49.856;19.030;2023-05-10T13:42:06;101457.77;;;22.79;30.35
33949;BME280;20229;49.856;19.030;2023-05-10T13:47:21;101448.37;;;22.61;30.28
33949;BME280;20229;49.856;19.030;2023-05-10T13:52:35;101449.83;;;22.65;30.27
33949;BME280;20229;49.856;19.030;2023-05-10T13:57:49;101450.00;;;22.73;29.60
33949;BME280;20229;49.856;19.030;2023-05-10T14:03:03;101427.55;;;22.84;29.86
33949;BME280;20229;49.856;19.030;2023-05-10T14:08:19;101427.27;;;22.87;30.16
33949;BME280;20229;49.856;19.030;2023-05-10T14:13:34;101430.35;;;22.75;29.70
33949;BME280;20229;49.856;19.030;2023-05-10T14:18:48;101428.76;;;22.62;29.82
33949;BME280;20229;49.856;19.030;2023-05-10T14:24:03;101431.69;;;22.41;29.83
33949;BME280;20229;49.856;19.030;2023-05-10T14:29:20;101426.87;;;22.34;30.19
33949;BME280;20229;49.856;19.030;2023-05-10T14:34:34;101423.48;;;22.21;29.81
33949;BME280;20229;49.856;19.030;2023-05-10T14:39:49;101431.95;;;22.19;29.78
33949;BME280;20229;49.856;19.030;2023-05-10T14:45:03;101425.82;;;22.25;30.33
33949;BME280;20229;49.856;19.030;2023-05-10T14:50:18;101429.06;;;22.30;30.90
33949;BME280;20229;49.856;19.030;2023-05-10T14:55:32;101428.61;;;22.35;31.12
33949;BME280;20229;49.856;19.030;2023-05-10T15:00:48;101430.66;;;22.23;30.86
33949;BME280;20229;49.856;19.030;2023-05-10T15:06:03;101429.16;;;22.19;31.78
33949;BME280;20229;49.856;19.030;2023-05-10T15:11:18;101426.85;;;22.24;31.53
33949;BME280;20229;49.856;19.030;2023-05-10T15:16:32;101423.77;;;22.17;31.18
33949;BME280;20229;49.856;19.030;2023-05-10T15:21:46;101432.21;;;22.06;31.89
33949;BME280;20229;49.856;19.030;2023-05-10T15:27:06;101427.52;;;22.07;31.52
33949;BME280;20229;49.856;19.030;2023-05-10T15:32:20;101428.40;;;22.07;32.97
33949;BME280;20229;49.856;19.030;2023-05-10T15:37:34;101434.08;;;21.96;32.04
33949;BME280;20229;49.856;19.030;2023-05-10T15:42:48;101433.05;;;21.87;33.27
33949;BME280;20229;49.856;19.030;2023-05-10T15:48:01;101437.98;;;21.74;32.37
33949;BME280;20229;49.856;19.030;2023-05-10T15:53:16;101431.79;;;21.61;32.51
33949;BME280;20229;49.856;19.030;2023-05-10T15:58:30;101430.87;;;21.51;32.54
33949;BME280;20229;49.856;19.030;2023-05-10T16:03:45;101432.59;;;21.42;32.87
33949;BME280;20229;49.856;19.030;2023-05-10T16:08:59;101446.82;;;21.28;33.70
33949;BME280;20229;49.856;19.030;2023-05-10T16:14:13;101441.02;;;21.10;33.37
33949;BME280;20229;49.856;19.030;2023-05-10T16:19:29;101447.80;;;20.96;33.81
33949;BME280;20229;49.856;19.030;2023-05-10T16:24:43;101452.05;;;20.79;32.78
33949;BME280;20229;49.856;19.030;2023-05-10T16:29:57;101449.47;;;20.66;33.89
33949;BME280;20229;49.856;19.030;2023-05-10T16:35:11;101452.45;;;20.53;34.20
33949;BME280;20229;49.856;19.030;2023-05-10T16:40:25;101449.59;;;20.33;34.99
33949;BME280;20229;49.856;19.030;2023-05-10T16:45:39;101454.94;;;20.13;35.29
33949;BME280;20229;49.856;19.030;2023-05-10T16:50:54;101448.84;;;19.87;36.06
33949;BME280;20229;49.856;19.030;2023-05-10T16:56:09;101459.67;;;19.68;35.68
33949;BME280;20229;49.856;19.030;2023-05-10T17:01:23;101460.67;;;19.44;37.52
33949;BME280;20229;49.856;19.030;2023-05-10T17:06:37;101474.37;;;19.23;38.43
33949;BME280;20229;49.856;19.030;2023-05-10T17:11:52;101469.55;;;19.03;39.47
33949;BME280;20229;49.856;19.030;2023-05-10T17:17:06;101473.02;;;18.82;40.71
33949;BME280;20229;49.856;19.030;2023-05-10T17:22:20;101476.05;;;18.55;42.55
33949;BME280;20229;49.856;19.030;2023-05-10T17:27:35;101485.00;;;18.35;43.22
33949;BME280;20229;49.856;19.030;2023-05-10T17:32:49;101478.22;;;18.15;44.47
33949;BME280;20229;49.856;19.030;2023-05-10T17:38:03;101487.39;;;17.91;45.04
33949;BME280;20229;49.856;19.030;2023-05-10T17:43:17;101485.19;;;17.71;45.84
33949;BME280;20229;49.856;19.030;2023-05-10T17:48:31;101498.92;;;17.47;47.27
33949;BME280;20229;49.856;19.030;2023-05-10T17:53:45;101501.56;;;17.23;47.98
33949;BME280;20229;49.856;19.030;2023-05-10T17:58:59;101501.01;;;17.05;47.96
33949;BME280;20229;49.856;19.030;2023-05-10T18:04:14;101508.03;;;16.84;49.04
33949;BME280;20229;49.856;19.030;2023-05-10T18:09:29;101511.17;;;16.65;50.58
33949;BME280;20229;49.856;19.030;2023-05-10T18:14:46;101524.84;;;16.39;52.65
33949;BME280;20229;49.856;19.030;2023-05-10T18:20:00;101515.19;;;16.19;52.53
33949;BME280;20229;49.856;19.030;2023-05-10T18:25:15;101527.84;;;15.95;53.50
33949;BME280;20229;49.856;19.030;2023-05-10T18:30:29;101532.18;;;15.85;53.59
33949;BME280;20229;49.856;19.030;2023-05-10T18:35:43;101546.75;;;15.72;53.80
33949;BME280;20229;49.856;19.030;2023-05-10T18:40:57;101553.20;;;15.57;55.84
33949;BME280;20229;49.856;19.030;2023-05-10T18:46:11;101555.56;;;15.49;56.18
33949;BME280;20229;49.856;19.030;2023-05-10T18:51:25;101556.05;;;15.41;56.87
33949;BME280;20229;49.856;19.030;2023-05-10T18:56:43;101566.74;;;15.32;57.31
33949;BME280;20229;49.856;19.030;2023-05-10T19:01:58;101569.88;;;15.25;56.91
33949;BME280;20229;49.856;19.030;2023-05-10T19:07:13;101566.72;;;15.17;57.12
33949;BME280;20229;49.856;19.030;2023-05-10T19:12:27;101571.90;;;15.08;57.87
33949;BME280;20229;49.856;19.030;2023-05-10T19:17:41;101576.99;;;14.99;58.47
33949;BME280;20229;49.856;19.030;2023-05-10T19:22:55;101571.86;;;14.93;58.75
33949;BME280;20229;49.856;19.030;2023-05-10T19:28:09;101584.14;;;14.88;58.78
33949;BME280;20229;49.856;19.030;2023-05-10T19:33:23;101573.51;;;14.81;58.75
33949;BME280;20229;49.856;19.030;2023-05-10T19:38:38;101584.86;;;14.75;59.56
33949;BME280;20229;49.856;19.030;2023-05-10T19:43:52;101586.20;;;14.68;59.97
33949;BME280;20229;49.856;19.030;2023-05-10T19:49:06;101594.73;;;14.64;60.83
33949;BME280;20229;49.856;19.030;2023-05-10T19:54:20;101583.28;;;14.55;61.59
33949;BME280;20229;49.856;19.030;2023-05-10T19:59:33;101601.18;;;14.47;61.58
33949;BME280;20229;49.856;19.030;2023-05-10T20:04:49;101602.33;;;14.43;62.96
33949;BME280;20229;49.856;19.030;2023-05-10T20:10:05;101599.23;;;14.33;63.20
33949;BME280;20229;49.856;19.030;2023-05-10T20:15:23;101602.43;;;14.25;62.11
33949;BME280;20229;49.856;19.030;2023-05-10T20:20:38;101609.31;;;14.17;63.47
33949;BME280;20229;49.856;19.030;2023-05-10T20:25:52;101612.50;;;14.09;64.44
33949;BME280;20229;49.856;19.030;2023-05-10T20:31:07;101614.80;;;14.01;64.82
33949;BME280;20229;49.856;19.030;2023-05-10T20:36:22;101611.45;;;13.96;64.23
33949;BME280;20229;49.856;19.030;2023-05-10T20:41:35;101615.48;;;13.88;65.78
33949;BME280;20229;49.856;19.030;2023-05-10T20:46:49;101623.09;;;13.83;65.21
33949;BME280;20229;49.856;19.030;2023-05-10T20:52:03;101630.88;;;13.75;65.26
33949;BME280;20229;49.856;19.030;2023-05-10T20:57:18;101625.72;;;13.69;67.96
33949;BME280;20229;49.856;19.030;2023-05-10T21:02:32;101618.96;;;13.59;66.55
33949;BME280;20229;49.856;19.030;2023-05-10T21:07:47;101623.89;;;13.52;66.62
33949;BME280;20229;49.856;19.030;2023-05-10T21:13:01;101619.96;;;13.41;66.85
33949;BME280;20229;49.856;19.030;2023-05-10T21:18:15;101625.76;;;13.34;66.93
33949;BME280;20229;49.856;19.030;2023-05-10T21:23:29;101619.80;;;13.26;67.56
33949;BME280;20229;49.856;19.030;2023-05-10T21:28:43;101628.48;;;13.17;67.16
33949;BME280;20229;49.856;19.030;2023-05-10T21:33:57;101631.88;;;13.05;67.77
33949;BME280;20229;49.856;19.030;2023-05-10T21:39:11;101636.05;;;12.95;68.59
33949;BME280;20229;49.856;19.030;2023-05-10T21:44:25;101642.98;;;12.84;69.10
33949;BME280;20229;49.856;19.030;2023-05-10T21:49:39;101646.11;;;12.77;69.23
33949;BME280;20229;49.856;19.030;2023-05-10T21:54:53;101639.31;;;12.66;68.98
33949;BME280;20229;49.856;19.030;2023-05-10T22:00:08;101656.93;;;12.61;69.10
33949;BME280;20229;49.856;19.030;2023-05-10T22:05:22;101663.69;;;12.54;70.00
33949;BME280;20229;49.856;19.030;2023-05-10T22:10:38;101666.16;;;12.41;70.70
33949;BME280;20229;49.856;19.030;2023-05-10T22:15:52;101673.09;;;12.29;70.98
33949;BME280;20229;49.856;19.030;2023-05-10T22:21:08;101668.08;;;12.20;70.84
33949;BME280;20229;49.856;19.030;2023-05-10T22:26:22;101675.84;;;12.10;71.84
33949;BME280;20229;49.856;19.030;2023-05-10T22:31:35;101679.96;;;12.00;71.36
33949;BME280;20229;49.856;19.030;2023-05-10T22:36:50;101682.41;;;11.87;71.90
33949;BME280;20229;49.856;19.030;2023-05-10T22:42:04;101684.55;;;11.79;72.80
33949;BME280;20229;49.856;19.030;2023-05-10T22:47:17;101692.09;;;11.74;73.19
33949;BME280;20229;49.856;19.030;2023-05-10T22:52:31;101684.81;;;11.73;68.82
33949;BME280;20229;49.856;19.030;2023-05-10T22:57:45;101693.71;;;11.78;67.19
33949;BME280;20229;49.856;19.030;2023-05-10T23:02:59;101687.15;;;11.82;66.55
33949;BME280;20229;49.856;19.030;2023-05-10T23:08:12;101686.18;;;11.83;65.98
33949;BME280;20229;49.856;19.030;2023-05-10T23:13:28;101688.12;;;11.81;65.33
33949;BME280;20229;49.856;19.030;2023-05-10T23:18:41;101692.89;;;11.76;64.73
33949;BME280;20229;49.856;19.030;2023-05-10T23:23:55;101698.45;;;11.75;64.53
33949;BME280;20229;49.856;19.030;2023-05-10T23:29:09;101697.83;;;11.68;64.62
33949;BME280;20229;49.856;19.030;2023-05-10T23:34:23;101695.36;;;11.62;64.35
33949;BME280;20229;49.856;19.030;2023-05-10T23:39:37;101700.43;;;11.51;64.88
33949;BME280;20229;49.856;19.030;2023-05-10T23:44:52;101690.94;;;11.39;65.61
33949;BME280;20229;49.856;19.030;2023-05-10T23:50:07;101705.20;;;11.25;66.70
33949;BME280;20229;49.856;19.030;2023-05-10T23:55:21;101703.90;;;11.13;66.77
